Terminal Aerodrome Forecast
Issued by NWS Sterling, VA

Current Version | Previous Version | Graphics & Text | Print | Product List | Glossary On
Versions: 1 2 3 4 5 6 7 8 9 10 11 12 13
328
FTUS41 KLWX 072336
TAFMRB
TAF
KMRB 072336Z 0800/0824 00000KT P6SM FEW200
     FM081200 29005KT P6SM BKN110
     FM081500 27011KT P6SM BKN070
     FM081700 28013G22KT P6SM SCT200=

USA.gov is the U.S. government's official web portal to all federal, state and local government web resources and services.